Oliver Springs, TN (37840)

2:20 AM EDT on March 28, 2017 (GMT -0400)
Coalfield | | Change Station

Elev 1102 ft 36.03 °N, 84.40 °W | Updated 8 seconds ago

Overcast
Overcast
54.9 °F
Feels Like 54.9 °F
N
1.1
Wind Variable Wind from ESE
Gusts 2.5 mph

Today
High -- | Low -- °F
--% Chance of Precip.
Yesterday
High -- | Low -- °F
Precip. -- in
Pressure 29.91 in
Visibility 10.0 miles
Clouds Few 8000 ft
Mostly Cloudy 10000 ft
Dew Point 54 °F
Humidity 97%
Rainfall 0.15 in
Snow Depth Not available.
7:28 AM 7:56 PM
New Moon, 0% visible
METAR KOQT 280553Z AUTO 00000KT 10SM FEW080 BKN100 14/13 A2993 RMK AO2 RAE15 SLP126 P0007 60062 T01440128 10200 20139 55013
Pressure 29.91 in
Visibility 10.0 miles
Clouds Few 8000 ft
Mostly Cloudy 10000 ft
Dew Point 54 °F
Humidity 97%
Rainfall 0.15 in
Snow Depth Not available.
7:28 AM 7:56 PM
New Moon, 0% visible
METAR KOQT 280553Z AUTO 00000KT 10SM FEW080 BKN100 14/13 A2993 RMK AO2 RAE15 SLP126 P0007 60062 T01440128 10200 20139 55013

Get Severe Weather Alerts

Thanks for signing up!

Be on the lookout for a verification email in your inbox.

You'll start receiving the daily forecast at 8 AM.

×

10-Day Weather Forecast

Almanac

Astronomy

Mar. 28, 2017 Rise Set
Actual Time
Civil Twilight
Nautical Twilight
Astronomical Twilight
Moon
Length of Visible Light
Length of Day
Tomorrow will be .
, % of the Moon is Illuminated

Today's Extremes

State Highs State Lows

Community

WunderPhotos

Upload Photos

1,962,540 photos uploaded!

WunderBlog® & News

Nearby

Air Quality

  Air Quality AQ Index Pollutant
Not available.

Snow Depth

Station Depth Elevation

Earthquake Activity

City Distance Mag. Time & Date
Minimum magnitude displayed is 2.5.

Earthquake Activity

City Distance Mag. Time & Date
Minimum magnitude displayed is 2.5.

Coastal Water Temperatures

Place Temperature

Stations

Nearby Weather Stations

Station Location Temp. Windchill Dew Point Humidity Wind Precip. Elev Updated Type
                   

Watches & Warnings

There are currently no watches in effect.